sensor_id;sensor_type;location;lat;lon;timestamp;pressure;altitude;pressure_sealevel;temperature;humidity
11077;BME280;5591;42.626;23.380;2024-01-16T00:00:17;92689.34;;;5.34;100.00
11077;BME280;5591;42.626;23.380;2024-01-16T00:02:45;92690.84;;;5.09;100.00
11077;BME280;5591;42.626;23.380;2024-01-16T00:05:12;92710.78;;;5.02;100.00
11077;BME280;5591;42.626;23.380;2024-01-16T00:07:39;92638.34;;;4.19;100.00
11077;BME280;5591;42.626;23.380;2024-01-16T00:10:07;92710.19;;;4.12;100.00
11077;BME280;5591;42.626;23.380;2024-01-16T00:12:34;92709.34;;;4.32;100.00
11077;BME280;5591;42.626;23.380;2024-01-16T00:15:01;92711.44;;;4.77;100.00
11077;BME280;5591;42.626;23.380;2024-01-16T00:17:28;92708.63;;;4.72;100.00
11077;BME280;5591;42.626;23.380;2024-01-16T00:19:56;92699.97;;;4.31;100.00
11077;BME280;5591;42.626;23.380;2024-01-16T00:22:25;92711.22;;;5.06;100.00
11077;BME280;5591;42.626;23.380;2024-01-16T00:24:52;92699.31;;;5.31;100.00
11077;BME280;5591;42.626;23.380;2024-01-16T00:27:19;92758.97;;;4.44;100.00
11077;BME280;5591;42.626;23.380;2024-01-16T00:29:46;92677.34;;;4.53;100.00
11077;BME280;5591;42.626;23.380;2024-01-16T00:32:13;92711.13;;;5.27;100.00
11077;BME280;5591;42.626;23.380;2024-01-16T00:34:41;92734.53;;;4.93;100.00
11077;BME280;5591;42.626;23.380;2024-01-16T00:37:09;92724.44;;;4.77;100.00
11077;BME280;5591;42.626;23.380;2024-01-16T00:39:37;92736.88;;;4.54;100.00
11077;BME280;5591;42.626;23.380;2024-01-16T00:42:04;92743.09;;;4.60;100.00
11077;BME280;5591;42.626;23.380;2024-01-16T00:44:32;92707.09;;;5.24;100.00
11077;BME280;5591;42.626;23.380;2024-01-16T00:47:00;92795.50;;;4.90;100.00
11077;BME280;5591;42.626;23.380;2024-01-16T00:49:27;92746.75;;;4.99;100.00
11077;BME280;5591;42.626;23.380;2024-01-16T00:51:54;92737.97;;;5.34;100.00
11077;BME280;5591;42.626;23.380;2024-01-16T00:54:22;92752.75;;;4.93;100.00
11077;BME280;5591;42.626;23.380;2024-01-16T00:56:49;92749.50;;;5.18;100.00
11077;BME280;5591;42.626;23.380;2024-01-16T00:59:16;92780.41;;;5.07;100.00
11077;BME280;5591;42.626;23.380;2024-01-16T01:01:43;92745.44;;;5.56;100.00
11077;BME280;5591;42.626;23.380;2024-01-16T01:04:09;92784.72;;;5.68;100.00
11077;BME280;5591;42.626;23.380;2024-01-16T01:06:36;92762.50;;;5.25;100.00
11077;BME280;5591;42.626;23.380;2024-01-16T01:09:03;92762.56;;;5.38;100.00
11077;BME280;5591;42.626;23.380;2024-01-16T01:11:31;92763.56;;;4.96;100.00
11077;BME280;5591;42.626;23.380;2024-01-16T01:13:58;92758.06;;;5.59;100.00
11077;BME280;5591;42.626;23.380;2024-01-16T01:16:25;92761.31;;;5.74;100.00
11077;BME280;5591;42.626;23.380;2024-01-16T01:18:51;92730.06;;;5.61;100.00
11077;BME280;5591;42.626;23.380;2024-01-16T01:21:18;92772.72;;;5.73;100.00
11077;BME280;5591;42.626;23.380;2024-01-16T01:23:45;92764.44;;;6.04;100.00
11077;BME280;5591;42.626;23.380;2024-01-16T01:26:12;92769.78;;;5.89;100.00
11077;BME280;5591;42.626;23.380;2024-01-16T01:28:41;92797.41;;;5.43;100.00
11077;BME280;5591;42.626;23.380;2024-01-16T01:31:08;92686.50;;;5.23;100.00
11077;BME280;5591;42.626;23.380;2024-01-16T01:33:35;92748.63;;;6.12;100.00
11077;BME280;5591;42.626;23.380;2024-01-16T01:36:02;92758.06;;;6.32;100.00
11077;BME280;5591;42.626;23.380;2024-01-16T01:38:29;92762.84;;;6.22;100.00
11077;BME280;5591;42.626;23.380;2024-01-16T01:40:56;92771.44;;;6.03;100.00
11077;BME280;5591;42.626;23.380;2024-01-16T01:43:24;92754.25;;;6.22;100.00
11077;BME280;5591;42.626;23.380;2024-01-16T01:46:05;92772.31;;;6.30;100.00
11077;BME280;5591;42.626;23.380;2024-01-16T01:48:35;92754.03;;;6.10;100.00
11077;BME280;5591;42.626;23.380;2024-01-16T01:51:02;92745.25;;;6.44;100.00
11077;BME280;5591;42.626;23.380;2024-01-16T01:53:31;92750.06;;;6.73;100.00
11077;BME280;5591;42.626;23.380;2024-01-16T01:56:02;92767.91;;;6.63;100.00
11077;BME280;5591;42.626;23.380;2024-01-16T01:58:31;92778.53;;;6.42;100.00
11077;BME280;5591;42.626;23.380;2024-01-16T02:00:59;92746.47;;;6.61;100.00
11077;BME280;5591;42.626;23.380;2024-01-16T02:03:27;92706.78;;;6.46;100.00
11077;BME280;5591;42.626;23.380;2024-01-16T02:05:55;92760.47;;;6.53;100.00
11077;BME280;5591;42.626;23.380;2024-01-16T02:08:22;92766.31;;;6.68;100.00
11077;BME280;5591;42.626;23.380;2024-01-16T02:10:50;92758.06;;;6.91;100.00
11077;BME280;5591;42.626;23.380;2024-01-16T02:13:19;92766.31;;;6.62;100.00
11077;BME280;5591;42.626;23.380;2024-01-16T02:15:49;92764.09;;;6.65;100.00
11077;BME280;5591;42.626;23.380;2024-01-16T02:18:17;92773.13;;;6.63;100.00
11077;BME280;5591;42.626;23.380;2024-01-16T02:20:44;92764.50;;;6.56;100.00
11077;BME280;5591;42.626;23.380;2024-01-16T02:23:13;92788.69;;;6.17;100.00
11077;BME280;5591;42.626;23.380;2024-01-16T02:25:42;92749.44;;;6.25;100.00
11077;BME280;5591;42.626;23.380;2024-01-16T02:28:09;92749.06;;;6.35;100.00
11077;BME280;5591;42.626;23.380;2024-01-16T02:30:35;92789.47;;;6.11;100.00
11077;BME280;5591;42.626;23.380;2024-01-16T02:33:02;92781.31;;;6.47;100.00
11077;BME280;5591;42.626;23.380;2024-01-16T02:35:30;92774.31;;;6.67;100.00
11077;BME280;5591;42.626;23.380;2024-01-16T02:37:56;92770.09;;;6.85;100.00
11077;BME280;5591;42.626;23.380;2024-01-16T02:40:23;92781.53;;;7.04;100.00
11077;BME280;5591;42.626;23.380;2024-01-16T02:42:51;92798.38;;;7.08;100.00
11077;BME280;5591;42.626;23.380;2024-01-16T02:45:18;92790.13;;;7.30;100.00
11077;BME280;5591;42.626;23.380;2024-01-16T02:47:45;92779.81;;;7.54;100.00
11077;BME280;5591;42.626;23.380;2024-01-16T02:50:12;92813.00;;;7.22;100.00
11077;BME280;5591;42.626;23.380;2024-01-16T02:52:38;92813.78;;;7.41;100.00
11077;BME280;5591;42.626;23.380;2024-01-16T02:55:06;92799.16;;;7.28;100.00
11077;BME280;5591;42.626;23.380;2024-01-16T02:57:33;92829.44;;;7.35;100.00
11077;BME280;5591;42.626;23.380;2024-01-16T03:00:01;92841.09;;;7.20;100.00
11077;BME280;5591;42.626;23.380;2024-01-16T03:02:28;92843.53;;;7.15;100.00
11077;BME280;5591;42.626;23.380;2024-01-16T03:04:55;92862.94;;;7.38;100.00
11077;BME280;5591;42.626;23.380;2024-01-16T03:07:22;92868.56;;;7.35;100.00
11077;BME280;5591;42.626;23.380;2024-01-16T03:09:49;92867.75;;;6.70;100.00
11077;BME280;5591;42.626;23.380;2024-01-16T03:12:16;92877.22;;;6.97;100.00
11077;BME280;5591;42.626;23.380;2024-01-16T03:14:43;92879.00;;;6.96;100.00
11077;BME280;5591;42.626;23.380;2024-01-16T03:17:11;92889.00;;;6.73;100.00
11077;BME280;5591;42.626;23.380;2024-01-16T03:19:38;92891.84;;;7.17;100.00
11077;BME280;5591;42.626;23.380;2024-01-16T03:22:05;92902.88;;;7.51;100.00
11077;BME280;5591;42.626;23.380;2024-01-16T03:24:31;92915.97;;;7.19;100.00
11077;BME280;5591;42.626;23.380;2024-01-16T03:26:58;92921.13;;;7.06;100.00
11077;BME280;5591;42.626;23.380;2024-01-16T03:29:25;92932.81;;;7.23;100.00
11077;BME280;5591;42.626;23.380;2024-01-16T03:31:52;92940.19;;;6.27;100.00
11077;BME280;5591;42.626;23.380;2024-01-16T03:34:20;92939.41;;;6.33;100.00
11077;BME280;5591;42.626;23.380;2024-01-16T03:36:46;92928.50;;;6.70;100.00
11077;BME280;5591;42.626;23.380;2024-01-16T03:39:13;92955.09;;;6.40;100.00
11077;BME280;5591;42.626;23.380;2024-01-16T03:41:40;92946.31;;;6.60;100.00
11077;BME280;5591;42.626;23.380;2024-01-16T03:44:07;92937.72;;;5.51;100.00
11077;BME280;5591;42.626;23.380;2024-01-16T03:46:34;92936.16;;;5.57;100.00
11077;BME280;5591;42.626;23.380;2024-01-16T03:49:00;92898.25;;;5.41;100.00
11077;BME280;5591;42.626;23.380;2024-01-16T03:51:28;92884.63;;;5.39;100.00
11077;BME280;5591;42.626;23.380;2024-01-16T03:53:55;92880.47;;;5.45;100.00
11077;BME280;5591;42.626;23.380;2024-01-16T03:56:22;92874.59;;;5.09;100.00
11077;BME280;5591;42.626;23.380;2024-01-16T03:58:49;92817.78;;;5.40;100.00
11077;BME280;5591;42.626;23.380;2024-01-16T04:01:15;92806.28;;;5.21;100.00
11077;BME280;5591;42.626;23.380;2024-01-16T04:03:42;92826.72;;;4.97;100.00
11077;BME280;5591;42.626;23.380;2024-01-16T04:06:16;92799.22;;;5.09;100.00
11077;BME280;5591;42.626;23.380;2024-01-16T04:08:44;92792.94;;;5.31;100.00
11077;BME280;5591;42.626;23.380;2024-01-16T04:11:12;92804.84;;;4.85;100.00
11077;BME280;5591;42.626;23.380;2024-01-16T04:13:39;92797.75;;;4.72;100.00
11077;BME280;5591;42.626;23.380;2024-01-16T04:16:06;92794.97;;;4.74;100.00
11077;BME280;5591;42.626;23.380;2024-01-16T04:18:35;92805.44;;;4.60;100.00
11077;BME280;5591;42.626;23.380;2024-01-16T04:21:03;92802.91;;;4.45;100.00
11077;BME280;5591;42.626;23.380;2024-01-16T04:23:30;92821.91;;;4.25;100.00
11077;BME280;5591;42.626;23.380;2024-01-16T04:25:58;92822.09;;;4.44;100.00
11077;BME280;5591;42.626;23.380;2024-01-16T04:28:25;92827.06;;;4.39;100.00
11077;BME280;5591;42.626;23.380;2024-01-16T04:30:52;92832.13;;;4.26;100.00
11077;BME280;5591;42.626;23.380;2024-01-16T04:33:19;92816.47;;;4.41;100.00
11077;BME280;5591;42.626;23.380;2024-01-16T04:35:45;92839.47;;;4.44;100.00
11077;BME280;5591;42.626;23.380;2024-01-16T04:38:12;92836.88;;;4.44;100.00
11077;BME280;5591;42.626;23.380;2024-01-16T04:40:39;92824.81;;;4.57;100.00
11077;BME280;5591;42.626;23.380;2024-01-16T04:43:07;92841.38;;;4.35;100.00
11077;BME280;5591;42.626;23.380;2024-01-16T04:45:34;92825.94;;;4.48;100.00
11077;BME280;5591;42.626;23.380;2024-01-16T04:48:01;92836.88;;;4.23;100.00
11077;BME280;5591;42.626;23.380;2024-01-16T04:50:28;92841.19;;;4.16;100.00
11077;BME280;5591;42.626;23.380;2024-01-16T04:52:57;92842.41;;;4.20;100.00
11077;BME280;5591;42.626;23.380;2024-01-16T04:55:25;92861.84;;;4.24;100.00
11077;BME280;5591;42.626;23.380;2024-01-16T04:57:53;92866.66;;;4.27;100.00
11077;BME280;5591;42.626;23.380;2024-01-16T05:00:21;92866.84;;;4.25;100.00
11077;BME280;5591;42.626;23.380;2024-01-16T05:02:48;92877.03;;;4.06;100.00
11077;BME280;5591;42.626;23.380;2024-01-16T05:05:15;92881.22;;;4.07;100.00
11077;BME280;5591;42.626;23.380;2024-01-16T05:07:42;92901.38;;;3.90;100.00
11077;BME280;5591;42.626;23.380;2024-01-16T05:10:10;92902.25;;;4.12;100.00
11077;BME280;5591;42.626;23.380;2024-01-16T05:12:38;92915.03;;;3.63;100.00
11077;BME280;5591;42.626;23.380;2024-01-16T05:15:06;92926.09;;;3.86;100.00
11077;BME280;5591;42.626;23.380;2024-01-16T05:17:35;92936.09;;;3.89;100.00
11077;BME280;5591;42.626;23.380;2024-01-16T05:20:02;92943.19;;;3.81;100.00
11077;BME280;5591;42.626;23.380;2024-01-16T05:22:30;92943.19;;;3.81;100.00
11077;BME280;5591;42.626;23.380;2024-01-16T05:24:56;92981.28;;;3.80;100.00
11077;BME280;5591;42.626;23.380;2024-01-16T05:27:23;92947.63;;;3.72;100.00
11077;BME280;5591;42.626;23.380;2024-01-16T05:29:50;92984.25;;;3.77;100.00
11077;BME280;5591;42.626;23.380;2024-01-16T05:32:17;92981.47;;;3.79;100.00
11077;BME280;5591;42.626;23.380;2024-01-16T05:34:45;93075.50;;;3.95;100.00
11077;BME280;5591;42.626;23.380;2024-01-16T05:37:12;93019.50;;;4.01;100.00
11077;BME280;5591;42.626;23.380;2024-01-16T05:39:39;93033.44;;;3.85;100.00
11077;BME280;5591;42.626;23.380;2024-01-16T05:42:06;93058.81;;;3.61;100.00
11077;BME280;5591;42.626;23.380;2024-01-16T05:44:33;93052.94;;;3.81;100.00
11077;BME280;5591;42.626;23.380;2024-01-16T05:47:00;93049.88;;;3.63;100.00
11077;BME280;5591;42.626;23.380;2024-01-16T05:49:27;93069.88;;;3.55;100.00
11077;BME280;5591;42.626;23.380;2024-01-16T05:51:55;93090.06;;;3.82;100.00
11077;BME280;5591;42.626;23.380;2024-01-16T05:54:23;93091.00;;;3.66;100.00
11077;BME280;5591;42.626;23.380;2024-01-16T05:56:49;93126.13;;;3.91;100.00
11077;BME280;5591;42.626;23.380;2024-01-16T05:59:16;93144.75;;;3.95;100.00
11077;BME280;5591;42.626;23.380;2024-01-16T06:01:43;93157.47;;;3.90;100.00
11077;BME280;5591;42.626;23.380;2024-01-16T06:04:10;93189.28;;;4.06;100.00
11077;BME280;5591;42.626;23.380;2024-01-16T06:06:37;93196.28;;;3.98;100.00
11077;BME280;5591;42.626;23.380;2024-01-16T06:09:05;93194.84;;;4.18;100.00
11077;BME280;5591;42.626;23.380;2024-01-16T06:11:33;93228.06;;;4.22;100.00
11077;BME280;5591;42.626;23.380;2024-01-16T06:14:00;93219.69;;;4.35;100.00
11077;BME280;5591;42.626;23.380;2024-01-16T06:16:27;93243.88;;;4.13;100.00
11077;BME280;5591;42.626;23.380;2024-01-16T06:18:54;93241.41;;;3.97;100.00
11077;BME280;5591;42.626;23.380;2024-01-16T06:21:22;93257.38;;;3.86;100.00
11077;BME280;5591;42.626;23.380;2024-01-16T06:23:49;93264.16;;;3.87;100.00
11077;BME280;5591;42.626;23.380;2024-01-16T06:26:17;93270.75;;;4.20;100.00
11077;BME280;5591;42.626;23.380;2024-01-16T06:28:44;93272.13;;;4.08;100.00
11077;BME280;5591;42.626;23.380;2024-01-16T06:31:11;93263.47;;;3.70;100.00
11077;BME280;5591;42.626;23.380;2024-01-16T06:33:38;93280.25;;;3.82;100.00
11077;BME280;5591;42.626;23.380;2024-01-16T06:36:06;93286.81;;;4.01;100.00
11077;BME280;5591;42.626;23.380;2024-01-16T06:38:33;93288.22;;;4.03;100.00
11077;BME280;5591;42.626;23.380;2024-01-16T06:40:59;93328.75;;;3.82;100.00
11077;BME280;5591;42.626;23.380;2024-01-16T06:43:28;93321.44;;;3.85;100.00
11077;BME280;5591;42.626;23.380;2024-01-16T06:45:55;93325.63;;;4.17;100.00
11077;BME280;5591;42.626;23.380;2024-01-16T06:48:22;93335.63;;;3.67;100.00
11077;BME280;5591;42.626;23.380;2024-01-16T06:50:48;93340.66;;;3.68;100.00
11077;BME280;5591;42.626;23.380;2024-01-16T06:53:15;93341.91;;;3.72;100.00
11077;BME280;5591;42.626;23.380;2024-01-16T06:55:42;93349.91;;;3.93;100.00
11077;BME280;5591;42.626;23.380;2024-01-16T06:58:09;93364.44;;;3.80;100.00
11077;BME280;5591;42.626;23.380;2024-01-16T07:00:37;93360.03;;;3.50;100.00
11077;BME280;5591;42.626;23.380;2024-01-16T07:03:06;93356.31;;;3.36;100.00
11077;BME280;5591;42.626;23.380;2024-01-16T07:05:33;93396.13;;;3.59;100.00
11077;BME280;5591;42.626;23.380;2024-01-16T07:08:00;93419.19;;;3.46;100.00
11077;BME280;5591;42.626;23.380;2024-01-16T07:10:27;93412.53;;;3.44;100.00
11077;BME280;5591;42.626;23.380;2024-01-16T07:12:53;93425.81;;;3.57;100.00
11077;BME280;5591;42.626;23.380;2024-01-16T07:15:21;93441.59;;;3.23;100.00
11077;BME280;5591;42.626;23.380;2024-01-16T07:17:49;93451.94;;;3.15;100.00
11077;BME280;5591;42.626;23.380;2024-01-16T07:20:16;93446.28;;;3.28;100.00
11077;BME280;5591;42.626;23.380;2024-01-16T07:22:43;93450.50;;;3.13;100.00
11077;BME280;5591;42.626;23.380;2024-01-16T07:25:10;93477.38;;;3.20;100.00
11077;BME280;5591;42.626;23.380;2024-01-16T07:27:37;93441.78;;;3.06;100.00
11077;BME280;5591;42.626;23.380;2024-01-16T07:30:05;93463.59;;;3.35;100.00
11077;BME280;5591;42.626;23.380;2024-01-16T07:32:32;93465.69;;;3.40;100.00
11077;BME280;5591;42.626;23.380;2024-01-16T07:35:02;93503.63;;;3.33;100.00
11077;BME280;5591;42.626;23.380;2024-01-16T07:37:28;93497.13;;;3.45;100.00
11077;BME280;5591;42.626;23.380;2024-01-16T07:39:55;93462.97;;;3.01;100.00
11077;BME280;5591;42.626;23.380;2024-01-16T07:42:22;93495.31;;;3.69;100.00
11077;BME280;5591;42.626;23.380;2024-01-16T07:44:49;93485.97;;;3.04;100.00
11077;BME280;5591;42.626;23.380;2024-01-16T07:47:16;93532.63;;;3.36;100.00
11077;BME280;5591;42.626;23.380;2024-01-16T07:49:43;93488.53;;;3.52;100.00
11077;BME280;5591;42.626;23.380;2024-01-16T07:52:11;93505.88;;;3.52;100.00
11077;BME280;5591;42.626;23.380;2024-01-16T07:54:38;93517.66;;;3.70;100.00
11077;BME280;5591;42.626;23.380;2024-01-16T07:57:05;93526.63;;;3.68;100.00
11077;BME280;5591;42.626;23.380;2024-01-16T07:59:32;93533.44;;;3.69;100.00
11077;BME280;5591;42.626;23.380;2024-01-16T08:01:58;93551.38;;;3.94;100.00
11077;BME280;5591;42.626;23.380;2024-01-16T08:04:25;93548.16;;;3.60;100.00
11077;BME280;5591;42.626;23.380;2024-01-16T08:06:52;93536.31;;;3.66;100.00
11077;BME280;5591;42.626;23.380;2024-01-16T08:09:20;93565.69;;;3.58;100.00
11077;BME280;5591;42.626;23.380;2024-01-16T08:11:47;93561.94;;;3.77;100.00
11077;BME280;5591;42.626;23.380;2024-01-16T08:14:14;93578.16;;;3.55;100.00
11077;BME280;5591;42.626;23.380;2024-01-16T08:16:41;93581.41;;;3.57;100.00
11077;BME280;5591;42.626;23.380;2024-01-16T08:19:07;93575.41;;;3.64;100.00
11077;BME280;5591;42.626;23.380;2024-01-16T08:21:34;93590.81;;;3.82;100.00
11077;BME280;5591;42.626;23.380;2024-01-16T08:24:01;93585.75;;;3.72;100.00
11077;BME280;5591;42.626;23.380;2024-01-16T08:26:29;93594.84;;;3.68;100.00
11077;BME280;5591;42.626;23.380;2024-01-16T08:28:56;93509.78;;;3.24;100.00
11077;BME280;5591;42.626;23.380;2024-01-16T08:31:23;93567.13;;;3.45;100.00
11077;BME280;5591;42.626;23.380;2024-01-16T08:33:50;93595.19;;;3.73;100.00
11077;BME280;5591;42.626;23.380;2024-01-16T08:36:16;93606.50;;;3.72;100.00
11077;BME280;5591;42.626;23.380;2024-01-16T08:38:43;93616.25;;;3.78;100.00
11077;BME280;5591;42.626;23.380;2024-01-16T08:41:10;93626.81;;;3.61;100.00
11077;BME280;5591;42.626;23.380;2024-01-16T08:43:38;93634.72;;;3.91;100.00
11077;BME280;5591;42.626;23.380;2024-01-16T08:46:05;93639.63;;;3.94;100.00
11077;BME280;5591;42.626;23.380;2024-01-16T08:48:32;93658.25;;;4.06;100.00
11077;BME280;5591;42.626;23.380;2024-01-16T08:50:59;93672.53;;;3.86;100.00
11077;BME280;5591;42.626;23.380;2024-01-16T08:53:25;93653.88;;;3.74;100.00
11077;BME280;5591;42.626;23.380;2024-01-16T08:55:53;93664.09;;;3.60;100.00
11077;BME280;5591;42.626;23.380;2024-01-16T08:58:20;93674.47;;;3.60;100.00
11077;BME280;5591;42.626;23.380;2024-01-16T09:00:48;93688.38;;;3.51;100.00
11077;BME280;5591;42.626;23.380;2024-01-16T09:03:15;93668.56;;;3.34;100.00
11077;BME280;5591;42.626;23.380;2024-01-16T09:05:43;93678.53;;;3.62;100.00
11077;BME280;5591;42.626;23.380;2024-01-16T09:08:10;93679.31;;;3.55;100.00
11077;BME280;5591;42.626;23.380;2024-01-16T09:10:37;93673.97;;;3.56;100.00
11077;BME280;5591;42.626;23.380;2024-01-16T09:13:04;93682.06;;;3.61;100.00
11077;BME280;5591;42.626;23.380;2024-01-16T09:15:30;93690.84;;;3.68;100.00
11077;BME280;5591;42.626;23.380;2024-01-16T09:17:59;93698.47;;;3.94;100.00
11077;BME280;5591;42.626;23.380;2024-01-16T09:20:25;93686.16;;;4.12;100.00
11077;BME280;5591;42.626;23.380;2024-01-16T09:22:53;93703.34;;;4.45;100.00
11077;BME280;5591;42.626;23.380;2024-01-16T09:25:19;93712.94;;;4.28;100.00
11077;BME280;5591;42.626;23.380;2024-01-16T09:27:49;93716.47;;;4.35;100.00
11077;BME280;5591;42.626;23.380;2024-01-16T09:30:16;93715.19;;;4.07;100.00
11077;BME280;5591;42.626;23.380;2024-01-16T09:32:43;93715.69;;;4.11;100.00
11077;BME280;5591;42.626;23.380;2024-01-16T09:35:12;93724.94;;;4.21;100.00
11077;BME280;5591;42.626;23.380;2024-01-16T09:37:39;93736.59;;;4.33;100.00
11077;BME280;5591;42.626;23.380;2024-01-16T09:40:07;93732.06;;;4.51;100.00
11077;BME280;5591;42.626;23.380;2024-01-16T09:42:34;93728.00;;;4.17;100.00
11077;BME280;5591;42.626;23.380;2024-01-16T09:45:01;93723.78;;;4.40;100.00
11077;BME280;5591;42.626;23.380;2024-01-16T09:47:30;93733.63;;;4.68;100.00
11077;BME280;5591;42.626;23.380;2024-01-16T09:49:57;93741.81;;;4.41;100.00
11077;BME280;5591;42.626;23.380;2024-01-16T09:52:27;93748.31;;;4.37;100.00
11077;BME280;5591;42.626;23.380;2024-01-16T09:54:54;93749.59;;;4.09;100.00
11077;BME280;5591;42.626;23.380;2024-01-16T09:57:25;93755.75;;;4.40;100.00
11077;BME280;5591;42.626;23.380;2024-01-16T09:59:52;93750.69;;;4.63;100.00
11077;BME280;5591;42.626;23.380;2024-01-16T10:02:20;93746.19;;;4.01;100.00
11077;BME280;5591;42.626;23.380;2024-01-16T10:04:47;93753.19;;;4.16;100.00
11077;BME280;5591;42.626;23.380;2024-01-16T10:07:15;93745.38;;;4.32;100.00
11077;BME280;5591;42.626;23.380;2024-01-16T10:09:44;93763.38;;;4.58;100.00
11077;BME280;5591;42.626;23.380;2024-01-16T10:12:11;93754.16;;;4.47;100.00
11077;BME280;5591;42.626;23.380;2024-01-16T10:14:40;93766.16;;;4.40;100.00
11077;BME280;5591;42.626;23.380;2024-01-16T10:17:08;93748.28;;;4.53;100.00
11077;BME280;5591;42.626;23.380;2024-01-16T10:19:48;93756.00;;;4.93;100.00
11077;BME280;5591;42.626;23.380;2024-01-16T10:22:20;93763.53;;;4.72;100.00
11077;BME280;5591;42.626;23.380;2024-01-16T10:24:48;93761.03;;;5.41;100.00
11077;BME280;5591;42.626;23.380;2024-01-16T10:27:15;93764.59;;;5.48;100.00
11077;BME280;5591;42.626;23.380;2024-01-16T10:29:54;93759.50;;;5.62;100.00
11077;BME280;5591;42.626;23.380;2024-01-16T10:32:27;93759.41;;;5.01;100.00
11077;BME280;5591;42.626;23.380;2024-01-16T10:35:01;93750.00;;;4.92;100.00
11077;BME280;5591;42.626;23.380;2024-01-16T10:37:29;93760.09;;;4.79;100.00
11077;BME280;5591;42.626;23.380;2024-01-16T10:39:57;93773.16;;;5.26;100.00
11077;BME280;5591;42.626;23.380;2024-01-16T10:42:24;93796.47;;;4.95;100.00
11077;BME280;5591;42.626;23.380;2024-01-16T10:44:54;93771.28;;;5.42;100.00
11077;BME280;5591;42.626;23.380;2024-01-16T10:47:21;93775.59;;;5.27;100.00
11077;BME280;5591;42.626;23.380;2024-01-16T10:49:48;93796.97;;;4.91;100.00
11077;BME280;5591;42.626;23.380;2024-01-16T10:52:17;93788.28;;;5.14;100.00
11077;BME280;5591;42.626;23.380;2024-01-16T10:54:46;93784.31;;;5.42;100.00
11077;BME280;5591;42.626;23.380;2024-01-16T10:57:17;93809.56;;;5.80;98.05
11077;BME280;5591;42.626;23.380;2024-01-16T10:59:50;93776.13;;;5.53;97.81
11077;BME280;5591;42.626;23.380;2024-01-16T11:02:20;93784.75;;;5.54;98.23
11077;BME280;5591;42.626;23.380;2024-01-16T11:04:48;93779.13;;;5.81;97.42
11077;BME280;5591;42.626;23.380;2024-01-16T11:07:16;93805.28;;;6.18;94.10
11077;BME280;5591;42.626;23.380;2024-01-16T11:09:44;93786.19;;;5.95;90.94
11077;BME280;5591;42.626;23.380;2024-01-16T11:12:12;93785.63;;;6.52;86.09
11077;BME280;5591;42.626;23.380;2024-01-16T11:14:44;93792.88;;;6.42;82.84
11077;BME280;5591;42.626;23.380;2024-01-16T11:17:12;93783.09;;;7.04;80.52
11077;BME280;5591;42.626;23.380;2024-01-16T11:19:44;93797.41;;;7.36;77.56
11077;BME280;5591;42.626;23.380;2024-01-16T11:22:11;93802.75;;;7.06;76.12
11077;BME280;5591;42.626;23.380;2024-01-16T11:24:38;93798.19;;;6.94;74.80
11077;BME280;5591;42.626;23.380;2024-01-16T11:27:05;93804.75;;;6.45;76.13
11077;BME280;5591;42.626;23.380;2024-01-16T11:29:34;93799.28;;;6.54;75.41
11077;BME280;5591;42.626;23.380;2024-01-16T11:32:03;93804.69;;;6.30;76.02
11077;BME280;5591;42.626;23.380;2024-01-16T11:34:57;93800.69;;;7.02;73.36
11077;BME280;5591;42.626;23.380;2024-01-16T11:37:28;93820.56;;;6.66;75.33
11077;BME280;5591;42.626;23.380;2024-01-16T11:40:22;93803.97;;;7.47;73.42
11077;BME280;5591;42.626;23.380;2024-01-16T11:42:50;93811.19;;;7.45;73.69
11077;BME280;5591;42.626;23.380;2024-01-16T11:45:52;93810.91;;;7.26;74.69
11077;BME280;5591;42.626;23.380;2024-01-16T11:48:20;93785.78;;;7.68;72.84
11077;BME280;5591;42.626;23.380;2024-01-16T11:50:47;93794.13;;;7.92;71.82
11077;BME280;5591;42.626;23.380;2024-01-16T11:53:35;93785.63;;;7.69;72.27
11077;BME280;5591;42.626;23.380;2024-01-16T11:56:34;93814.50;;;7.53;72.29
11077;BME280;5591;42.626;23.380;2024-01-16T11:59:19;93847.28;;;6.15;78.16
11077;BME280;5591;42.626;23.380;2024-01-16T12:01:57;93799.59;;;6.14;81.25
11077;BME280;5591;42.626;23.380;2024-01-16T12:04:26;93815.75;;;6.77;79.55
11077;BME280;5591;42.626;23.380;2024-01-16T12:06:59;93811.00;;;6.36;81.03
11077;BME280;5591;42.626;23.380;2024-01-16T12:09:27;93839.47;;;6.15;80.39
11077;BME280;5591;42.626;23.380;2024-01-16T12:11:59;93857.69;;;6.15;81.94
11077;BME280;5591;42.626;23.380;2024-01-16T12:14:26;93810.59;;;5.94;84.13
11077;BME280;5591;42.626;23.380;2024-01-16T12:17:08;93834.38;;;5.91;84.68
11077;BME280;5591;42.626;23.380;2024-01-16T12:19:36;93822.38;;;6.43;81.69
11077;BME280;5591;42.626;23.380;2024-01-16T12:22:08;93840.53;;;6.73;78.49
11077;BME280;5591;42.626;23.380;2024-01-16T12:24:35;93837.75;;;6.52;77.94
11077;BME280;5591;42.626;23.380;2024-01-16T12:27:01;93837.88;;;6.81;80.31
11077;BME280;5591;42.626;23.380;2024-01-16T12:29:27;93830.13;;;6.73;78.40
11077;BME280;5591;42.626;23.380;2024-01-16T12:32:05;93845.75;;;6.28;82.41
11077;BME280;5591;42.626;23.380;2024-01-16T12:34:32;93854.59;;;6.50;80.16
11077;BME280;5591;42.626;23.380;2024-01-16T12:37:05;93856.03;;;5.91;83.20
11077;BME280;5591;42.626;23.380;2024-01-16T12:39:33;93839.31;;;6.16;82.76
11077;BME280;5591;42.626;23.380;2024-01-16T12:42:01;93847.19;;;6.00;82.60
11077;BME280;5591;42.626;23.380;2024-01-16T12:44:29;93816.09;;;4.98;86.06
11077;BME280;5591;42.626;23.380;2024-01-16T12:46:56;93865.19;;;5.71;87.88
11077;BME280;5591;42.626;23.380;2024-01-16T12:49:24;93882.94;;;6.14;84.58
11077;BME280;5591;42.626;23.380;2024-01-16T12:51:51;93870.28;;;5.65;85.58
11077;BME280;5591;42.626;23.380;2024-01-16T12:54:20;93881.03;;;5.54;90.43
11077;BME280;5591;42.626;23.380;2024-01-16T12:56:47;93889.28;;;5.57;90.18
11077;BME280;5591;42.626;23.380;2024-01-16T12:59:14;93869.19;;;5.98;87.67
11077;BME280;5591;42.626;23.380;2024-01-16T13:01:42;93856.81;;;6.00;84.58
11077;BME280;5591;42.626;23.380;2024-01-16T13:04:09;93862.97;;;6.60;81.49
11077;BME280;5591;42.626;23.380;2024-01-16T13:06:38;93870.69;;;6.23;83.38